Time;durP1;ratioP1;P1;durP2;ratioP2;P2;SDS_P1;SDS_P2;PMS_P1;PMS_P2;Temp;Humidity;BMP_temperature;BMP_pressure;BME280_temperature;BME280_humidity;BME280_pressure;Samples;Min_cycle;Max_cycle;Signal;HPM_P1;HPM_P2
2021/04/08 00:02:01;;;;;;;14.57;12.38;;;;;;;3.27;55.95;93748.38;5012677;28;20502;-83
2021/04/08 00:04:30;;;;;;;17.33;11.82;;;;;;;3.18;54.96;93725.53;5013835;28;20436;-85
2021/04/08 00:06:56;;;;;;;18.17;12.85;;;;;;;3.22;55.43;93731.88;5014519;28;20480;-85
2021/04/08 00:09:23;;;;;;;19.55;13.15;;;;;;;3.12;55.27;93727.31;5011911;28;20038;-87
2021/04/08 00:11:48;;;;;;;14.20;10.88;;;;;;;3.15;55.95;93744.31;5012152;28;20515;-83
2021/04/08 00:14:15;;;;;;;17.83;11.68;;;;;;;3.16;55.61;93743.28;5006780;28;21046;-86
2021/04/08 00:16:40;;;;;;;17.23;12.75;;;;;;;3.04;56.32;93714.66;5003789;28;20041;-83
2021/04/08 00:19:11;;;;;;;16.33;12.43;;;;;;;3.17;56.21;93745.66;5020813;28;20560;-87
2021/04/08 00:21:40;;;;;;;18.45;12.50;;;;;;;2.88;55.42;93690.22;5012241;28;20602;-84
2021/04/08 00:24:06;;;;;;;16.75;11.40;;;;;;;3.17;55.61;93742.25;5010688;28;20136;-84
2021/04/08 00:26:31;;;;;;;14.18;11.55;;;;;;;3.04;55.73;93725.13;5010949;28;20048;-82
2021/04/08 00:28:59;;;;;;;19.40;13.40;;;;;;;3.09;55.72;93732.22;5010656;28;20056;-83
2021/04/08 00:31:31;;;;;;;20.80;14.05;;;;;;;2.93;56.22;93728.66;5013181;28;20279;-86
2021/04/08 00:33:59;;;;;;;13.80;10.82;;;;;;;2.89;56.29;93738.78;5015180;28;20025;-85
2021/04/08 00:36:25;;;;;;;13.00;10.65;;;;;;;2.71;57.11;93741.69;5008685;28;20552;-86
2021/04/08 00:38:50;;;;;;;19.52;11.85;;;;;;;2.69;57.13;93728.06;5010692;28;20128;-86
2021/04/08 00:41:15;;;;;;;14.68;11.18;;;;;;;2.75;57.10;93737.56;5009081;28;20036;-86
2021/04/08 00:43:41;;;;;;;16.25;11.50;;;;;;;2.72;56.94;93743.25;5007421;28;20085;-86
2021/04/08 00:46:09;;;;;;;28.25;16.58;;;;;;;2.63;57.75;93747.31;5013001;28;20458;-85
2021/04/08 00:48:35;;;;;;;15.98;11.20;;;;;;;2.44;57.56;93731.16;5012562;28;20042;-87
2021/04/08 00:51:02;;;;;;;19.33;13.18;;;;;;;2.46;58.30;93743.94;5010905;28;20053;-88
2021/04/08 00:53:32;;;;;;;14.50;10.85;;;;;;;2.39;58.05;93730.28;5010529;28;20037;-83
2021/04/08 00:55:58;;;;;;;15.13;11.35;;;;;;;2.37;58.09;93743.56;5013093;28;20036;-87
2021/04/08 00:58:25;;;;;;;17.30;11.73;;;;;;;2.31;58.59;93746.31;5011545;28;20490;-86
2021/04/08 01:00:51;;;;;;;14.13;10.98;;;;;;;2.24;58.86;93743.09;5012237;28;20467;-87
2021/04/08 01:03:17;;;;;;;14.40;11.15;;;;;;;2.29;58.56;93743.97;4986821;28;20048;-84
2021/04/08 01:05:45;;;;;;;16.40;11.25;;;;;;;2.24;59.02;93743.09;5013871;28;20064;-85
2021/04/08 01:08:12;;;;;;;13.95;11.35;;;;;;;2.15;59.42;93727.84;5010345;28;20041;-86
2021/04/08 01:10:41;;;;;;;17.02;11.57;;;;;;;2.30;58.75;93735.09;5010922;28;20045;-86
2021/04/08 01:13:09;;;;;;;14.15;11.68;;;;;;;2.24;58.89;93736.06;5010815;28;20119;-85
2021/04/08 01:15:39;;;;;;;15.90;11.40;;;;;;;2.15;59.14;93733.06;5014630;28;20041;-88
2021/04/08 01:18:40;;;;;;;14.95;11.13;;;;;;;2.10;59.50;93734.81;5026309;28;20590;-88
2021/04/08 01:21:14;;;;;;;15.15;11.82;;;;;;;2.01;59.96;93734.41;5006701;28;20522;-87
2021/04/08 01:24:17;;;;;;;14.10;11.33;;;;;;;2.06;59.60;93733.69;5010950;28;20057;-88
2021/04/08 01:27:13;;;;;;;17.45;11.73;;;;;;;1.96;59.59;93744.75;5010098;28;20486;-88
2021/04/08 01:30:00;;;;;;;19.15;12.52;;;;;;;1.89;60.11;93746.75;4987077;28;20118;-88
2021/04/08 01:32:28;;;;;;;17.38;12.05;;;;;;;1.83;60.63;93744.28;5014826;28;20397;-86
2021/04/08 01:34:59;;;;;;;14.90;11.48;;;;;;;1.74;60.55;93731.66;5011293;28;20100;-87
2021/04/08 01:37:34;;;;;;;21.42;14.88;;;;;;;1.78;60.57;93737.16;5015338;28;20106;-88
2021/04/08 01:40:02;;;;;;;19.23;12.18;;;;;;;1.90;60.02;93748.31;5016208;28;20025;-88
2021/04/08 01:42:29;;;;;;;20.10;12.40;;;;;;;1.77;60.51;93735.59;5015719;28;20049;-85
2021/04/08 01:44:57;;;;;;;15.57;11.80;;;;;;;1.81;60.68;93726.25;5011631;28;20094;-87
2021/04/08 01:47:26;;;;;;;18.88;13.10;;;;;;;1.81;60.37;93725.50;5012622;28;20053;-87
2021/04/08 01:49:57;;;;;;;19.95;12.90;;;;;;;1.83;60.41;93728.66;5013841;28;20049;-83
2021/04/08 01:52:28;;;;;;;16.83;11.75;;;;;;;1.83;60.52;93745.06;5011535;28;20040;-85
2021/04/08 01:54:58;;;;;;;16.92;12.90;;;;;;;1.83;60.12;93742.47;5015500;28;20056;-87
2021/04/08 01:57:26;;;;;;;16.80;10.80;;;;;;;2.01;59.56;93752.66;5011465;28;20524;-89
2021/04/08 01:59:53;;;;;;;21.60;14.00;;;;;;;1.56;59.81;93695.41;5011786;28;20045;-83
2021/04/08 02:02:19;;;;;;;21.90;15.77;;;;;;;1.92;60.14;93759.28;5015422;28;20219;-87
2021/04/08 02:04:48;;;;;;;15.63;12.30;;;;;;;1.73;59.72;93737.09;5010473;28;20526;-88
2021/04/08 02:07:15;;;;;;;15.45;12.30;;;;;;;1.84;60.11;93753.69;5014738;28;20032;-86
2021/04/08 02:09:41;;;;;;;18.63;13.20;;;;;;;1.76;60.35;93744.41;5015062;28;20533;-87
2021/04/08 02:12:09;;;;;;;15.13;12.63;;;;;;;2.06;59.62;93773.59;5013490;28;20025;-86
2021/04/08 02:14:40;;;;;;;17.92;13.00;;;;;;;2.04;59.66;93764.44;5012869;28;20498;-87
2021/04/08 02:17:10;;;;;;;16.38;12.45;;;;;;;2.08;59.33;93768.94;5010735;28;20490;-87
2021/04/08 02:19:39;;;;;;;16.00;11.20;;;;;;;1.93;59.05;93745.25;5013192;28;20038;-87
2021/04/08 02:22:08;;;;;;;15.57;11.48;;;;;;;1.85;59.15;93756.06;5013092;28;20021;-88
2021/04/08 02:24:37;;;;;;;15.15;11.43;;;;;;;2.11;59.02;93783.31;5010198;28;20119;-88
2021/04/08 02:27:07;;;;;;;17.23;12.57;;;;;;;2.11;58.88;93778.88;5012846;28;20037;-88
2021/04/08 02:29:33;;;;;;;17.63;12.63;;;;;;;1.96;59.26;93768.22;4998163;28;20049;-85
2021/04/08 02:32:00;;;;;;;19.13;11.98;;;;;;;2.17;58.99;93788.38;5017662;28;20041;-84
2021/04/08 02:34:25;;;;;;;16.75;12.38;;;;;;;1.97;58.71;93756.75;5013698;28;20017;-87
2021/04/08 02:36:51;;;;;;;16.42;12.48;;;;;;;2.10;59.26;93792.94;5012571;28;20044;-85
2021/04/08 02:39:16;;;;;;;17.63;12.55;;;;;;;1.93;59.86;93754.88;5005537;28;21491;-86
2021/04/08 02:41:46;;;;;;;15.80;12.88;;;;;;;2.01;59.42;93757.06;5014451;28;20034;-83
2021/04/08 02:44:16;;;;;;;18.77;13.48;;;;;;;1.80;59.83;93729.91;5012370;28;20158;-81
2021/04/08 02:46:42;;;;;;;16.13;12.43;;;;;;;2.11;59.51;93765.84;5011174;28;20026;-86
2021/04/08 02:49:09;;;;;;;21.98;14.80;;;;;;;2.11;59.85;93772.88;5008564;28;20033;-83
2021/04/08 02:51:58;;;;;;;16.75;11.20;;;;;;;2.08;59.89;93773.34;5010285;28;20046;-86
2021/04/08 02:54:41;;;;;;;18.83;14.02;;;;;;;2.12;60.41;93801.31;5011654;28;20038;-86
2021/04/08 02:57:11;;;;;;;18.55;12.43;;;;;;;2.16;60.35;93802.44;5013276;28;20034;-86
2021/04/08 02:59:47;;;;;;;21.83;12.48;;;;;;;2.09;60.12;93795.78;5011788;28;20053;-86
2021/04/08 03:02:23;;;;;;;16.33;11.75;;;;;;;2.17;60.21;93813.66;5006475;28;20041;-84
2021/04/08 03:04:54;;;;;;;13.73;11.23;;;;;;;2.06;60.26;93811.88;5012675;28;20083;-85
2021/04/08 03:07:46;;;;;;;16.80;11.95;;;;;;;2.12;60.47;93808.34;5006533;28;20021;-85
2021/04/08 03:10:15;;;;;;;17.85;11.63;;;;;;;2.10;60.38;93818.25;5012377;28;20029;-87
2021/04/08 03:12:50;;;;;;;16.33;12.68;;;;;;;2.10;59.86;93815.63;5009409;28;20017;-86
2021/04/08 03:15:31;;;;;;;16.48;12.07;;;;;;;2.10;60.57;93813.03;5026824;28;20041;-84
2021/04/08 03:17:59;;;;;;;15.07;11.15;;;;;;;1.82;60.48;93779.97;5012577;28;20129;-85
2021/04/08 03:20:26;;;;;;;13.27;10.98;;;;;;;2.16;60.22;93828.50;5010518;28;20533;-85
2021/04/08 03:22:57;;;;;;;14.57;11.25;;;;;;;2.10;60.20;93819.00;5000512;28;20513;-82
2021/04/08 03:25:23;;;;;;;14.77;11.40;;;;;;;2.27;59.45;93839.88;5008799;28;20044;-85
2021/04/08 03:27:55;;;;;;;18.52;11.45;;;;;;;2.26;59.25;93845.31;5013521;28;20013;-86
2021/04/08 03:30:22;;;;;;;13.50;10.70;;;;;;;2.28;58.85;93849.28;5010846;28;20124;-86
2021/04/08 03:32:48;;;;;;;14.60;10.60;;;;;;;2.29;58.94;93856.09;5011290;28;20033;-84
2021/04/08 03:35:14;;;;;;;14.40;10.77;;;;;;;2.28;59.40;93856.31;5010042;28;20037;-86
2021/04/08 03:37:41;;;;;;;12.00;10.18;;;;;;;2.37;58.82;93857.50;5010194;28;20040;-85
2021/04/08 03:40:12;;;;;;;17.58;11.68;;;;;;;2.42;58.63;93868.03;5013850;28;20029;-85
2021/04/08 03:42:38;;;;;;;14.85;10.63;;;;;;;2.43;59.29;93875.63;4992034;28;20042;-85
2021/04/08 03:45:04;;;;;;;14.85;10.23;;;;;;;2.45;58.27;93867.53;4990428;28;20108;-85
2021/04/08 03:47:31;;;;;;;13.88;10.65;;;;;;;2.44;58.49;93876.41;4974504;28;20120;-87
2021/04/08 03:49:58;;;;;;;15.23;11.05;;;;;;;2.43;58.27;93880.03;4989327;28;20048;-85
2021/04/08 03:52:24;;;;;;;17.73;10.93;;;;;;;2.40;58.46;93889.13;4994906;28;20085;-86
2021/04/08 03:54:57;;;;;;;16.17;11.15;;;;;;;2.36;58.35;93880.19;4987932;28;20030;-83
2021/04/08 03:57:24;;;;;;;15.00;10.60;;;;;;;2.37;57.60;93862.72;4980359;28;20077;-86
2021/04/08 03:59:53;;;;;;;20.15;14.73;;;;;;;2.51;57.81;93880.44;5001777;28;20045;-83
2021/04/08 04:02:19;;;;;;;15.70;11.07;;;;;;;2.56;57.69;93884.94;4989518;28;20379;-86
2021/04/08 04:04:49;;;;;;;18.52;10.70;;;;;;;2.62;57.63;93899.66;4992779;28;20064;-85
2021/04/08 04:07:15;;;;;;;14.82;11.18;;;;;;;2.50;58.94;93885.88;4991334;28;20156;-86
2021/04/08 04:09:43;;;;;;;15.85;10.60;;;;;;;2.73;57.85;93909.25;4993305;28;20058;-87
2021/04/08 04:12:14;;;;;;;11.95;10.20;;;;;;;2.68;57.82;93898.72;4979756;28;20042;-86
2021/04/08 04:14:41;;;;;;;17.88;10.38;;;;;;;2.67;57.98;93897.13;4988234;28;20042;-85
2021/04/08 04:17:23;;;;;;;16.88;10.48;;;;;;;2.75;58.42;93908.97;4985995;28;20046;-85
2021/04/08 04:19:49;;;;;;;14.30;10.30;;;;;;;2.77;58.49;93904.34;4989766;28;20369;-85
2021/04/08 04:22:21;;;;;;;14.30;10.52;;;;;;;2.78;59.48;93918.97;4990124;28;20382;-85
2021/04/08 04:24:46;;;;;;;18.75;12.60;;;;;;;2.84;57.79;93926.63;4992762;28;20068;-85
2021/04/08 04:27:12;;;;;;;14.95;10.65;;;;;;;2.92;57.39;93939.28;4987344;28;20862;-85
2021/04/08 04:29:38;;;;;;;18.48;11.90;;;;;;;2.69;58.04;93934.19;4991748;28;20037;-84
2021/04/08 04:32:03;;;;;;;14.80;10.80;;;;;;;2.80;58.02;93935.97;4988823;28;20039;-85
2021/04/08 04:34:29;;;;;;;16.67;10.75;;;;;;;2.90;57.81;93943.94;4990535;28;21605;-85
2021/04/08 04:36:54;;;;;;;18.48;12.18;;;;;;;2.80;58.18;93933.34;4992492;28;20384;-85
2021/04/08 04:39:20;;;;;;;15.43;11.85;;;;;;;2.87;57.50;93939.22;4988290;28;20511;-85
2021/04/08 04:41:48;;;;;;;14.80;10.50;;;;;;;2.93;57.33;93937.47;4986782;28;20858;-83
2021/04/08 04:44:13;;;;;;;15.68;11.50;;;;;;;2.84;57.80;93939.66;4982262;28;20049;-83
2021/04/08 04:46:41;;;;;;;20.45;12.52;;;;;;;2.87;58.12;93947.03;4985998;28;20111;-85
2021/04/08 04:49:18;;;;;;;15.30;11.05;;;;;;;3.02;57.25;93956.94;4992598;28;20038;-85
2021/04/08 04:51:44;;;;;;;15.48;11.20;;;;;;;2.89;56.68;93926.69;4991539;28;20041;-84
2021/04/08 04:54:09;;;;;;;19.25;12.63;;;;;;;2.98;56.55;93956.59;4987641;28;20580;-86
2021/04/08 04:56:37;;;;;;;16.50;11.30;;;;;;;2.97;56.41;93949.81;4992107;28;20137;-86
2021/04/08 04:59:03;;;;;;;13.70;11.13;;;;;;;2.94;56.87;93945.03;4983095;28;20046;-84
2021/04/08 05:01:28;;;;;;;16.98;11.18;;;;;;;3.15;56.61;93961.03;4989624;28;20025;-85
2021/04/08 05:03:54;;;;;;;15.18;11.38;;;;;;;3.05;56.61;93952.00;4990588;28;20022;-87
2021/04/08 05:06:21;;;;;;;15.95;11.20;;;;;;;3.10;56.44;93968.78;4986991;28;20061;-84
2021/04/08 05:08:46;;;;;;;15.25;11.32;;;;;;;3.02;56.33;93946.47;4995960;28;20533;-84
2021/04/08 05:11:15;;;;;;;18.17;11.07;;;;;;;3.12;56.77;93967.53;4992773;28;20355;-87
2021/04/08 05:13:40;;;;;;;14.00;11.20;;;;;;;3.24;56.43;93981.28;4995546;28;20072;-86
2021/04/08 05:16:08;;;;;;;16.70;11.15;;;;;;;3.32;56.68;93972.25;4994877;28;20429;-86
2021/04/08 05:18:40;;;;;;;19.40;11.25;;;;;;;3.36;56.77;93965.53;4996130;28;20038;-85
2021/04/08 05:21:06;;;;;;;15.57;10.68;;;;;;;3.28;55.59;93945.81;4991936;28;20034;-86
2021/04/08 05:23:32;;;;;;;15.90;11.38;;;;;;;3.53;55.87;93974.13;4994449;28;20054;-83
2021/04/08 05:25:57;;;;;;;16.55;11.15;;;;;;;3.72;55.18;93982.47;4989319;28;20067;-83
2021/04/08 05:28:23;;;;;;;15.50;11.55;;;;;;;3.81;54.44;93988.88;5002970;28;20344;-86
2021/04/08 05:30:49;;;;;;;15.63;10.90;;;;;;;3.69;53.49;93972.50;4996602;28;20108;-86
2021/04/08 05:33:14;;;;;;;17.10;11.55;;;;;;;3.74;54.37;93983.81;4994203;28;20046;-84
2021/04/08 05:35:40;;;;;;;19.40;13.40;;;;;;;3.85;53.81;93976.91;4995009;28;20049;-86
2021/04/08 05:38:05;;;;;;;17.50;11.38;;;;;;;3.99;53.20;93982.56;4996158;28;20038;-84
2021/04/08 05:40:37;;;;;;;15.15;10.85;;;;;;;3.97;53.30;93972.34;4984292;28;20040;-85
2021/04/08 05:43:02;;;;;;;15.13;10.40;;;;;;;4.09;52.64;93991.31;4993290;28;20070;-84
2021/04/08 05:45:28;;;;;;;17.05;11.38;;;;;;;4.06;52.64;93991.00;4993584;28;20125;-82
2021/04/08 05:47:57;;;;;;;16.55;12.10;;;;;;;4.13;52.56;93979.34;4993627;28;20241;-85
2021/04/08 05:50:26;;;;;;;16.33;12.02;;;;;;;4.28;53.09;93999.66;4989499;28;20251;-86
2021/04/08 05:52:55;;;;;;;19.10;13.13;;;;;;;4.04;52.65;93964.31;4979746;28;20049;-90
2021/04/08 05:55:25;;;;;;;18.45;12.40;;;;;;;4.08;53.74;93950.50;4971633;28;20026;-86
2021/04/08 05:57:53;;;;;;;24.35;13.38;;;;;;;4.23;52.11;93957.75;5003652;28;20038;-83
2021/04/08 06:00:22;;;;;;;45.00;14.13;;;;;;;4.43;51.58;93971.03;4991320;28;20045;-87
2021/04/08 06:02:57;;;;;;;20.38;12.80;;;;;;;4.66;51.40;94003.97;4992296;28;20046;-87
2021/04/08 06:05:22;;;;;;;21.88;13.13;;;;;;;4.75;50.73;93998.06;4997734;28;20026;-87
2021/04/08 06:07:50;;;;;;;23.08;15.60;;;;;;;4.63;51.21;93960.78;4993541;28;20065;-88
2021/04/08 06:10:16;;;;;;;20.38;15.18;;;;;;;5.15;50.25;94030.88;4997056;28;20032;-87
2021/04/08 06:12:43;;;;;;;20.45;15.95;;;;;;;5.21;50.53;94001.09;4996305;28;20025;-83
2021/04/08 06:15:19;;;;;;;23.60;13.35;;;;;;;5.59;50.19;94029.66;4996563;28;20038;-84
2021/04/08 06:17:44;;;;;;;17.52;11.45;;;;;;;5.48;49.66;93999.19;4988295;28;20124;-86
2021/04/08 06:20:15;;;;;;;19.55;10.68;;;;;;;5.90;49.72;94027.28;4991116;28;20478;-87
2021/04/08 06:22:44;;;;;;;28.75;19.98;;;;;;;5.95;49.42;94020.25;4995053;28;20072;-87
2021/04/08 06:25:15;;;;;;;23.20;16.48;;;;;;;6.09;48.81;94034.47;4994421;28;20152;-86
2021/04/08 06:27:41;;;;;;;26.05;17.55;;;;;;;5.90;49.15;93993.97;4996280;28;20041;-86
2021/04/08 06:30:15;;;;;;;15.05;11.60;;;;;;;6.31;48.14;94030.88;4990913;28;20466;-87
2021/04/08 06:32:40;;;;;;;16.45;12.02;;;;;;;6.42;48.00;94038.56;4995055;28;20121;-85
2021/04/08 06:35:18;;;;;;;17.98;13.93;;;;;;;6.24;48.22;94010.16;4985420;28;20172;-86
2021/04/08 06:37:43;;;;;;;16.02;11.75;;;;;;;6.57;47.49;94058.03;4972302;28;20530;-86
2021/04/08 06:40:09;;;;;;;19.05;12.65;;;;;;;6.04;47.22;94008.22;4985722;28;20080;-83
2021/04/08 06:42:35;;;;;;;16.27;11.95;;;;;;;6.39;47.94;94057.47;4997108;28;20057;-84
2021/04/08 06:45:04;;;;;;;16.88;10.98;;;;;;;6.22;48.06;94029.81;4992387;28;20132;-85
2021/04/08 06:47:35;;;;;;;16.17;12.30;;;;;;;6.26;47.72;94025.63;4950913;28;20039;-86
2021/04/08 06:50:07;;;;;;;16.60;13.32;;;;;;;6.18;47.92;94005.91;4984756;28;20065;-84
2021/04/08 06:52:39;;;;;;;15.98;12.15;;;;;;;6.52;47.86;94043.84;4991535;28;20085;-86
2021/04/08 06:55:08;;;;;;;17.17;11.45;;;;;;;6.51;47.90;94029.13;4996200;28;20061;-85
2021/04/08 06:57:34;;;;;;;19.50;12.48;;;;;;;7.02;46.38;94060.03;4986102;28;20119;-85
2021/04/08 06:59:59;;;;;;;16.45;11.38;;;;;;;7.07;45.50;94050.31;4981889;28;20767;-85
2021/04/08 07:02:25;;;;;;;16.30;10.82;;;;;;;7.34;45.28;94066.63;4995246;28;20050;-85
2021/04/08 07:04:54;;;;;;;13.35;10.65;;;;;;;7.54;44.41;94073.75;4979401;28;20045;-90
2021/04/08 07:07:23;;;;;;;16.63;11.52;;;;;;;7.89;44.27;94057.19;4994437;28;20080;-87
2021/04/08 07:09:49;;;;;;;20.25;11.02;;;;;;;8.17;43.29;94066.34;4996073;28;20026;-87
2021/04/08 07:12:29;;;;;;;14.85;10.55;;;;;;;8.31;42.87;94054.22;4971518;28;20050;-86
2021/04/08 07:14:58;;;;;;;12.70;10.88;;;;;;;8.66;42.54;94040.94;4974342;28;20505;-84
2021/04/08 07:17:24;;;;;;;17.00;10.82;;;;;;;9.13;41.45;94037.81;4995093;28;20549;-88
2021/04/08 07:19:49;;;;;;;16.25;10.60;;;;;;;10.43;39.43;94057.31;4994600;28;20117;-89
2021/04/08 07:22:20;;;;;;;12.77;10.60;;;;;;;11.32;38.52;94044.31;4996303;28;20112;-89
2021/04/08 07:24:53;;;;;;;13.48;10.32;;;;;;;12.52;35.82;94065.38;4996138;28;20473;-88
2021/04/08 07:27:22;;;;;;;10.43;8.23;;;;;;;13.12;33.03;94041.41;4993324;28;20111;-87
2021/04/08 07:29:54;;;;;;;12.23;9.40;;;;;;;14.36;31.64;94074.41;4995341;28;20528;-90
2021/04/08 07:32:35;;;;;;;15.98;10.90;;;;;;;15.04;30.73;94071.25;4990540;28;20073;-90
2021/04/08 07:35:19;;;;;;;12.18;9.05;;;;;;;15.40;29.12;94072.88;4996111;28;20038;-87
2021/04/08 07:37:58;;;;;;;11.98;9.35;;;;;;;15.90;28.89;94063.38;4992504;28;20046;-87
2021/04/08 07:40:28;;;;;;;13.75;9.68;;;;;;;16.69;27.80;94068.25;4994363;28;20568;-86
2021/04/08 07:42:53;;;;;;;13.23;10.05;;;;;;;17.30;26.73;94058.06;4992891;28;20034;-86
2021/04/08 07:45:34;;;;;;;13.40;8.90;;;;;;;17.51;27.08;94069.56;4993945;28;20400;-87
2021/04/08 07:48:01;;;;;;;11.27;10.02;;;;;;;18.22;26.44;94064.16;4980178;28;20061;-89
2021/04/08 07:50:28;;;;;;;10.95;8.38;;;;;;;19.03;25.35;94074.16;4993013;28;20030;-85
2021/04/08 07:52:53;;;;;;;11.32;9.18;;;;;;;19.35;24.76;94081.28;4993171;28;20041;-86
2021/04/08 07:55:34;;;;;;;10.63;8.00;;;;;;;19.04;24.22;94062.31;4986763;28;20026;-86
2021/04/08 07:58:06;;;;;;;12.00;7.82;;;;;;;19.79;23.71;94076.13;4995079;28;20057;-87
2021/04/08 08:00:39;;;;;;;11.32;9.55;;;;;;;20.29;23.36;94079.06;4994851;28;20038;-84
2021/04/08 08:03:13;;;;;;;16.35;9.10;;;;;;;19.72;22.92;94081.28;4993175;28;20133;-85
2021/04/08 08:05:46;;;;;;;7.10;6.40;;;;;;;19.52;23.28;94050.81;4994643;28;20043;-84
2021/04/08 08:08:15;;;;;;;8.63;6.60;;;;;;;20.22;23.14;94078.13;4991101;28;20510;-83
2021/04/08 08:11:01;;;;;;;9.20;7.75;;;;;;;21.11;22.29;94087.34;4990573;28;20046;-84
2021/04/08 08:13:47;;;;;;;9.73;7.32;;;;;;;21.04;21.58;94062.22;4994025;28;20054;-83
2021/04/08 08:16:20;;;;;;;9.60;7.28;;;;;;;21.37;21.65;94059.97;4994147;28;20038;-84
2021/04/08 08:18:46;;;;;;;11.55;7.38;;;;;;;21.63;20.93;94082.81;4993598;28;20028;-86
2021/04/08 08:21:41;;;;;;;8.93;7.38;;;;;;;22.27;20.79;94071.53;4990901;28;20308;-85
2021/04/08 08:24:09;;;;;;;10.20;6.40;;;;;;;22.29;18.98;94080.78;4974108;28;20045;-84
2021/04/08 08:26:41;;;;;;;8.50;6.60;;;;;;;21.85;19.83;94074.84;4992386;28;20333;-85
2021/04/08 08:29:06;;;;;;;7.70;6.80;;;;;;;21.90;20.15;94082.66;5007900;28;20046;-84
2021/04/08 08:31:37;;;;;;;6.90;6.20;;;;;;;20.91;20.40;94079.56;4983624;28;20050;-88
2021/04/08 08:34:10;;;;;;;8.30;6.20;;;;;;;20.27;20.89;94054.50;4982222;28;20034;-88
2021/04/08 08:36:39;;;;;;;9.13;6.97;;;;;;;19.22;22.66;94066.34;4995471;28;20046;-84
2021/04/08 08:39:08;;;;;;;8.55;6.68;;;;;;;18.10;21.53;94050.72;4990785;28;20121;-84
2021/04/08 08:41:35;;;;;;;10.07;5.93;;;;;;;16.31;23.21;94062.06;4996969;28;20490;-84
2021/04/08 08:44:04;;;;;;;8.88;6.72;;;;;;;16.14;25.38;94104.75;4990570;28;20069;-84
2021/04/08 08:46:30;;;;;;;11.95;7.38;;;;;;;16.13;25.54;94100.50;4991291;28;20026;-85
2021/04/08 08:48:59;;;;;;;13.23;7.97;;;;;;;15.74;25.77;94096.91;4996523;28;20022;-86
2021/04/08 08:51:26;;;;;;;8.93;7.70;;;;;;;15.08;26.88;94080.19;4992229;28;20135;-82
2021/04/08 08:53:55;;;;;;;10.05;7.30;;;;;;;14.83;26.64;94080.88;4993639;28;20595;-84
2021/04/08 08:56:27;;;;;;;8.30;6.90;;;;;;;14.61;29.32;94102.22;4993062;28;20565;-84
2021/04/08 08:58:53;;;;;;;9.95;6.80;;;;;;;14.35;26.82;94110.03;4986961;28;20434;-83
2021/04/08 09:01:21;;;;;;;11.05;8.00;;;;;;;13.74;27.61;94097.38;4991518;28;20030;-84
2021/04/08 09:03:47;;;;;;;12.07;7.25;;;;;;;13.91;28.30;94118.78;4997895;28;20072;-84
2021/04/08 09:06:13;;;;;;;10.00;7.65;;;;;;;13.61;29.16;94122.91;4988222;28;20140;-83
2021/04/08 09:08:46;;;;;;;9.77;8.20;;;;;;;13.30;29.13;94122.75;4989339;28;20049;-83
2021/04/08 09:11:24;;;;;;;13.82;10.02;;;;;;;13.10;29.63;94117.03;4990139;28;20042;-83
2021/04/08 09:13:52;;;;;;;16.13;8.93;;;;;;;12.69;30.21;94109.88;4992027;28;20406;-82
2021/04/08 09:16:18;;;;;;;10.15;7.95;;;;;;;12.59;30.61;94108.22;4992585;28;20141;-85
2021/04/08 09:19:11;;;;;;;8.07;6.90;;;;;;;12.89;29.71;94111.38;4991534;28;20606;-85
2021/04/08 09:21:51;;;;;;;14.45;8.80;;;;;;;12.77;31.06;94114.50;4988925;28;20568;-85
2021/04/08 09:24:23;;;;;;;12.30;7.78;;;;;;;12.91;28.48;94111.84;4989149;28;20042;-81
2021/04/08 09:26:53;;;;;;;21.88;10.95;;;;;;;13.14;28.88;94087.03;4985508;28;20038;-87
2021/04/08 09:29:48;;;;;;;12.75;8.15;;;;;;;13.44;29.75;94096.97;4991043;28;20633;-86
2021/04/08 09:32:19;;;;;;;12.45;8.57;;;;;;;13.33;29.13;94111.56;4989922;28;20527;-85
2021/04/08 09:35:03;;;;;;;8.68;6.85;;;;;;;12.91;30.12;94119.81;5005019;28;20411;-85
2021/04/08 09:37:44;;;;;;;10.48;8.13;;;;;;;12.91;28.96;94114.50;4979916;28;20049;-86
2021/04/08 09:40:35;;;;;;;12.25;7.55;;;;;;;12.56;30.32;94108.00;4994622;28;20397;-83
2021/04/08 09:43:05;;;;;;;10.13;7.32;;;;;;;12.57;29.38;94102.41;4984470;28;20061;-86
2021/04/08 09:45:32;;;;;;;10.25;7.30;;;;;;;12.43;31.10;94114.06;4988192;28;20564;-85
2021/04/08 09:48:10;;;;;;;8.98;8.07;;;;;;;12.48;29.79;94112.09;4990500;28;20053;-85
2021/04/08 09:50:58;;;;;;;7.85;7.05;;;;;;;12.12;30.44;94116.44;4993225;28;20501;-84
2021/04/08 09:53:50;;;;;;;13.77;8.38;;;;;;;11.98;30.19;94118.25;4992044;28;20485;-85
2021/04/08 09:56:18;;;;;;;10.40;7.65;;;;;;;12.07;30.63;94117.28;4983571;28;20042;-84
2021/04/08 09:58:56;;;;;;;9.40;6.68;;;;;;;12.05;30.87;94119.47;4996356;28;20120;-84
2021/04/08 10:01:21;;;;;;;10.65;7.60;;;;;;;12.09;30.13;94120.47;4993309;28;20463;-86
2021/04/08 10:03:47;;;;;;;8.48;6.35;;;;;;;11.87;29.10;94111.56;4997724;28;20026;-86
2021/04/08 10:06:27;;;;;;;9.13;6.85;;;;;;;11.86;29.03;94105.47;4994868;28;20049;-86
2021/04/08 10:09:05;;;;;;;13.00;7.35;;;;;;;11.83;29.24;94105.25;4992789;28;20601;-85
2021/04/08 10:11:31;;;;;;;11.82;6.90;;;;;;;11.86;29.23;94094.09;4995393;28;20609;-84
2021/04/08 10:13:57;;;;;;;10.02;6.80;;;;;;;11.95;28.62;94118.84;4993745;28;20721;-86
2021/04/08 10:16:22;;;;;;;10.32;7.07;;;;;;;11.82;29.73;94114.28;4992678;28;20036;-85
2021/04/08 10:18:58;;;;;;;15.07;6.38;;;;;;;11.70;29.02;94120.75;4997021;28;20053;-87
2021/04/08 10:21:24;;;;;;;8.88;6.80;;;;;;;11.14;29.05;94115.41;4994214;28;20053;-87
2021/04/08 10:23:52;;;;;;;10.43;5.35;;;;;;;10.95;29.03;94121.75;4993824;28;20068;-86
2021/04/08 10:26:19;;;;;;;8.27;5.97;;;;;;;10.67;29.85;94123.38;4993400;28;20123;-86
2021/04/08 10:28:48;;;;;;;11.00;6.97;;;;;;;10.41;29.50;94125.47;4992677;28;21225;-87
2021/04/08 10:31:19;;;;;;;9.70;7.18;;;;;;;10.69;31.50;94124.69;4996516;28;20107;-88
2021/04/08 10:33:46;;;;;;;8.90;6.93;;;;;;;10.88;30.64;94118.66;4996039;28;20549;-89
2021/04/08 10:36:25;;;;;;;8.23;7.03;;;;;;;10.57;30.69;94083.84;4995186;28;20046;-88
2021/04/08 10:39:13;;;;;;;10.70;6.63;;;;;;;11.03;30.87;94113.19;4992639;28;20065;-84
2021/04/08 10:41:40;;;;;;;10.88;7.60;;;;;;;11.02;30.75;94098.41;4995359;28;20402;-84
2021/04/08 10:44:45;;;;;;;12.00;8.10;;;;;;;11.16;32.21;94117.78;4989975;28;20060;-85
2021/04/08 10:47:16;;;;;;;10.50;6.78;;;;;;;11.46;30.80;94106.81;4956815;28;20601;-85
2021/04/08 10:49:58;;;;;;;9.90;6.82;;;;;;;11.44;30.96;94127.47;4994087;28;20053;-85
2021/04/08 10:52:39;;;;;;;17.88;7.57;;;;;;;11.26;33.17;94142.25;4992577;28;20025;-84
2021/04/08 10:55:10;;;;;;;15.05;6.47;;;;;;;10.57;35.09;94128.78;4993217;28;20678;-84
2021/04/08 10:57:36;;;;;;;13.82;12.30;;;;;;;10.14;37.55;94146.31;4995543;28;20042;-86
2021/04/08 11:00:06;;;;;;;12.25;8.30;;;;;;;9.62;38.28;94137.19;4988688;28;20053;-84
2021/04/08 11:02:35;;;;;;;12.60;7.65;;;;;;;9.47;39.13;94151.25;4995859;28;20042;-85
2021/04/08 11:05:05;;;;;;;9.88;7.38;;;;;;;9.39;39.68;94140.47;4991264;28;20046;-86
2021/04/08 11:07:49;;;;;;;13.23;8.85;;;;;;;8.96;40.48;94150.69;4994659;28;20030;-83
2021/04/08 11:10:19;;;;;;;12.00;7.97;;;;;;;8.73;41.29;94140.78;4990581;28;20078;-86
2021/04/08 11:12:52;;;;;;;9.27;6.90;;;;;;;8.26;41.84;94125.28;4994154;28;20078;-85
2021/04/08 11:15:22;;;;;;;8.90;5.95;;;;;;;8.20;41.18;94142.97;4991423;28;20038;-85
2021/04/08 11:17:57;;;;;;;7.65;5.43;;;;;;;8.66;41.63;94137.63;5008336;28;20034;-87
2021/04/08 11:20:43;;;;;;;6.20;5.60;;;;;;;9.26;36.23;94131.31;4993787;28;20038;-88
2021/04/08 11:23:16;;;;;;;7.82;6.00;;;;;;;9.74;35.87;94135.00;4989643;28;20722;-87
2021/04/08 11:25:41;;;;;;;7.07;5.60;;;;;;;9.73;33.60;94122.84;4988084;28;20049;-88
2021/04/08 11:28:08;;;;;;;9.65;6.18;;;;;;;10.15;35.87;94135.47;4994822;28;20396;-84
2021/04/08 11:30:44;;;;;;;8.65;6.00;;;;;;;10.43;33.06;94115.44;4982794;28;20673;-87
2021/04/08 11:33:24;;;;;;;8.55;7.15;;;;;;;10.71;33.25;94127.81;4991274;28;20042;-85
2021/04/08 11:35:52;;;;;;;9.55;7.25;;;;;;;10.65;34.37;94123.66;4990958;28;20038;-86
2021/04/08 11:38:20;;;;;;;8.57;6.82;;;;;;;10.70;34.45;94126.25;4994070;28;20517;-85
2021/04/08 11:41:13;;;;;;;6.47;5.82;;;;;;;10.43;33.20;94131.28;4988202;28;20042;-84
2021/04/08 11:43:49;;;;;;;9.38;5.15;;;;;;;10.15;33.25;94124.91;4989610;28;20125;-82